Time;durP1;ratioP1;P1;durP2;ratioP2;P2;SDS_P1;SDS_P2;PMS_P1;PMS_P2;Temp;Humidity;BMP_temperature;BMP_pressure;BME280_temperature;BME280_humidity;BME280_pressure;Samples;Min_cycle;Max_cycle;Signal;HPM_P1;HPM_P2
2021/11/05 00:00:57;;;;;;;57.97;45.20;;;8.70;99.90;;;;;;5133646;27;20161;-72
2021/11/05 00:03:23;;;;;;;57.40;43.97;;;8.70;99.90;;;;;;5133651;27;20419;-72
2021/11/05 00:05:48;;;;;;;60.60;42.87;;;8.70;99.90;;;;;;5125089;27;20280;-72
2021/11/05 00:08:15;;;;;;;62.80;46.03;;;8.70;99.90;;;;;;5113222;28;20207;-72
2021/11/05 00:10:42;;;;;;;57.90;44.85;;;8.80;99.90;;;;;;5112993;28;20162;-72
2021/11/05 00:13:10;;;;;;;63.30;45.00;;;8.80;99.90;;;;;;5113063;28;20165;-72
2021/11/05 00:15:36;;;;;;;57.20;44.15;;;8.80;99.90;;;;;;5112922;28;20419;-72
2021/11/05 00:18:01;;;;;;;57.80;44.03;;;8.80;99.90;;;;;;5112729;28;20192;-72
2021/11/05 00:20:27;;;;;;;55.67;44.97;;;8.90;99.90;;;;;;5113009;28;20539;-72
2021/11/05 00:22:53;;;;;;;55.90;44.00;;;8.90;99.90;;;;;;5113740;28;20182;-72
2021/11/05 00:25:19;;;;;;;57.67;43.77;;;8.90;99.90;;;;;;5112525;28;20493;-72
2021/11/05 00:27:45;;;;;;;57.57;45.07;;;8.90;99.90;;;;;;5112892;27;20260;-72
2021/11/05 00:30:12;;;;;;;58.27;46.00;;;8.90;99.90;;;;;;5120953;28;20962;-72
2021/11/05 00:32:39;;;;;;;59.50;43.27;;;8.90;99.90;;;;;;5112687;28;20485;-72
2021/11/05 00:35:06;;;;;;;60.67;46.80;;;8.90;99.90;;;;;;5112647;28;20397;-72
2021/11/05 00:37:31;;;;;;;60.40;46.80;;;8.90;99.90;;;;;;5112595;28;20923;-72
2021/11/05 00:39:57;;;;;;;67.50;46.53;;;8.90;99.90;;;;;;5113154;28;20420;-71
2021/11/05 00:42:22;;;;;;;62.50;46.47;;;8.90;99.90;;;;;;5112640;28;20489;-72
2021/11/05 00:44:48;;;;;;;66.03;47.40;;;8.90;99.90;;;;;;5112800;28;20524;-72
2021/11/05 00:47:15;;;;;;;68.23;48.07;;;8.90;99.90;;;;;;5112718;28;20233;-72
2021/11/05 00:49:42;;;;;;;73.13;47.27;;;8.90;99.90;;;;;;5112781;28;20155;-71
2021/11/05 00:52:08;;;;;;;70.10;50.13;;;8.90;99.90;;;;;;5112645;28;20479;-72
2021/11/05 00:54:34;;;;;;;72.40;50.30;;;8.90;99.90;;;;;;5112582;28;20487;-72
2021/11/05 00:56:59;;;;;;;64.33;47.70;;;9.00;99.90;;;;;;5112778;28;20998;-72
2021/11/05 00:59:25;;;;;;;63.80;47.70;;;8.90;99.90;;;;;;5113639;27;20199;-72
2021/11/05 01:01:51;;;;;;;67.13;48.73;;;8.90;99.90;;;;;;5137151;27;20498;-72
2021/11/05 01:04:16;;;;;;;66.07;49.60;;;8.90;99.90;;;;;;5137841;27;20193;-72
2021/11/05 01:06:42;;;;;;;72.40;50.77;;;8.90;99.90;;;;;;5137265;27;20145;-72
2021/11/05 01:09:07;;;;;;;65.97;48.67;;;8.90;99.90;;;;;;5136857;27;20186;-72
2021/11/05 01:11:33;;;;;;;68.70;50.40;;;8.90;99.90;;;;;;5137174;27;20627;-72
2021/11/05 01:13:58;;;;;;;65.67;49.70;;;8.90;99.90;;;;;;5126966;27;20337;-72
2021/11/05 01:16:24;;;;;;;73.43;50.30;;;8.90;99.90;;;;;;5116643;28;20210;-72
2021/11/05 01:18:50;;;;;;;68.97;49.83;;;8.90;99.90;;;;;;5116729;27;20185;-72
2021/11/05 01:21:16;;;;;;;68.97;48.33;;;8.90;99.90;;;;;;5116384;28;20186;-72
2021/11/05 01:23:42;;;;;;;63.30;47.30;;;8.90;99.90;;;;;;5116702;28;20185;-72
2021/11/05 01:26:07;;;;;;;70.50;51.50;;;8.90;99.90;;;;;;5116278;28;20389;-72
2021/11/05 01:28:33;;;;;;;63.33;48.03;;;8.90;99.90;;;;;;5134175;27;20437;-72
2021/11/05 01:30:59;;;;;;;62.53;47.97;;;8.90;99.90;;;;;;5126450;27;20181;-72
2021/11/05 01:33:24;;;;;;;71.60;50.10;;;8.90;99.90;;;;;;5116060;28;20215;-72
2021/11/05 01:35:51;;;;;;;72.70;52.80;;;8.90;99.90;;;;;;5115977;28;20275;-72
2021/11/05 01:38:17;;;;;;;70.80;50.00;;;8.90;99.90;;;;;;5116264;28;20227;-72
2021/11/05 01:40:43;;;;;;;67.87;48.37;;;8.90;99.90;;;;;;5116054;28;20401;-72
2021/11/05 01:43:10;;;;;;;73.50;50.60;;;8.90;99.90;;;;;;5116097;28;20378;-72
2021/11/05 01:45:36;;;;;;;71.88;51.28;;;8.90;99.90;;;;;;5116018;28;20448;-72
2021/11/05 01:48:02;;;;;;;71.30;49.40;;;8.90;99.90;;;;;;5125845;27;20192;-72
2021/11/05 01:50:28;;;;;;;63.10;45.70;;;8.90;99.90;;;;;;5121982;27;20428;-72
2021/11/05 01:52:54;;;;;;;67.70;47.07;;;8.90;99.90;;;;;;5115687;28;20533;-72
2021/11/05 01:55:21;;;;;;;67.37;47.70;;;8.90;99.90;;;;;;5115535;28;20200;-72
2021/11/05 01:57:47;;;;;;;83.10;52.30;;;8.90;99.90;;;;;;5127273;27;20458;-72
2021/11/05 02:00:16;;;;;;;91.17;57.27;;;9.00;99.90;;;;;;5136260;27;20392;-72
2021/11/05 02:02:42;;;;;;;83.23;54.70;;;9.00;99.90;;;;;;5135981;27;20582;-72
2021/11/05 02:05:08;;;;;;;77.17;51.80;;;9.00;99.90;;;;;;5124326;27;20411;-71
2021/11/05 02:07:35;;;;;;;70.77;45.60;;;9.00;99.90;;;;;;5115292;28;20514;-72
2021/11/05 02:10:04;;;;;;;77.93;48.27;;;9.00;99.90;;;;;;5114753;28;20158;-72
2021/11/05 02:12:30;;;;;;;74.47;46.20;;;9.00;99.90;;;;;;5114927;28;20385;-72
2021/11/05 02:14:57;;;;;;;67.40;46.80;;;9.00;99.90;;;;;;5115200;28;20385;-71
2021/11/05 02:17:24;;;;;;;77.00;48.47;;;9.00;99.90;;;;;;5115214;28;20488;-72
2021/11/05 02:19:50;;;;;;;74.93;48.83;;;9.00;99.90;;;;;;5114983;28;20452;-72
2021/11/05 02:22:16;;;;;;;68.77;43.83;;;9.00;99.90;;;;;;5115791;27;20761;-72
2021/11/05 02:24:42;;;;;;;65.38;43.17;;;9.00;99.90;;;;;;5115121;28;20154;-72
2021/11/05 02:27:08;;;;;;;64.93;41.40;;;9.00;99.90;;;;;;5123813;27;20189;-72
2021/11/05 02:29:34;;;;;;;65.05;39.97;;;9.00;99.90;;;;;;5134693;27;20166;-72
2021/11/05 02:32:00;;;;;;;64.10;41.40;;;9.00;99.90;;;;;;5135102;27;20166;-72
2021/11/05 02:34:26;;;;;;;60.00;39.20;;;9.00;99.90;;;;;;5135708;27;20162;-72
2021/11/05 02:36:53;;;;;;;63.53;40.22;;;9.00;99.90;;;;;;5135527;27;20997;-72
2021/11/05 02:39:19;;;;;;;61.90;38.90;;;9.00;99.90;;;;;;5122174;27;20291;-72
2021/11/05 02:41:46;;;;;;;67.73;39.70;;;9.00;99.90;;;;;;5115118;28;20459;-71
2021/11/05 02:44:13;;;;;;;59.50;39.90;;;9.00;99.90;;;;;;5114841;28;20241;-72
2021/11/05 02:46:38;;;;;;;68.57;42.20;;;9.00;99.90;;;;;;5114668;28;20858;-72
2021/11/05 02:49:07;;;;;;;69.67;41.90;;;9.00;99.90;;;;;;5114440;28;20479;-72
2021/11/05 02:51:33;;;;;;;57.97;39.97;;;8.90;99.90;;;;;;5114277;28;20673;-72
2021/11/05 02:54:00;;;;;;;55.67;37.37;;;8.90;99.90;;;;;;5114544;28;20404;-72
2021/11/05 02:56:26;;;;;;;56.67;36.20;;;8.90;99.90;;;;;;5115062;27;20420;-72
2021/11/05 02:58:52;;;;;;;50.60;34.97;;;8.90;99.90;;;;;;5114605;28;20462;-72
2021/11/05 03:01:19;;;;;;;55.53;36.67;;;8.90;99.90;;;;;;5131080;27;20475;-72
2021/11/05 03:03:46;;;;;;;56.43;35.20;;;8.90;99.90;;;;;;5134807;27;20423;-72
2021/11/05 03:06:12;;;;;;;51.60;33.83;;;8.90;99.90;;;;;;5135070;27;20401;-71
2021/11/05 03:08:38;;;;;;;51.00;32.27;;;8.90;99.90;;;;;;5134981;27;20395;-72
2021/11/05 03:11:04;;;;;;;56.30;35.20;;;8.90;99.90;;;;;;5134857;27;20165;-72
2021/11/05 03:13:30;;;;;;;61.87;38.77;;;8.90;99.90;;;;;;5119988;27;20785;-72
2021/11/05 03:15:56;;;;;;;52.43;34.00;;;8.90;99.90;;;;;;5114258;28;20396;-72
2021/11/05 03:18:23;;;;;;;51.30;34.13;;;8.90;99.90;;;;;;5113986;28;20458;-72
2021/11/05 03:20:49;;;;;;;54.47;34.30;;;9.00;99.90;;;;;;5114086;28;20446;-72
2021/11/05 03:23:15;;;;;;;47.40;33.73;;;8.90;99.90;;;;;;5113351;28;20393;-72
2021/11/05 03:25:42;;;;;;;59.10;38.20;;;9.00;99.90;;;;;;5113893;28;20635;-72
2021/11/05 03:28:08;;;;;;;62.30;36.07;;;8.90;99.90;;;;;;5133338;27;20302;-71
2021/11/05 03:30:34;;;;;;;57.37;34.20;;;8.90;99.90;;;;;;5119231;27;20927;-72
2021/11/05 03:33:00;;;;;;;44.33;30.37;;;8.90;99.90;;;;;;5113949;28;20756;-71
2021/11/05 03:35:26;;;;;;;41.87;28.97;;;8.90;99.90;;;;;;5113939;28;20401;-72
2021/11/05 03:37:51;;;;;;;43.87;28.80;;;8.90;99.90;;;;;;5120693;27;20188;-72
2021/11/05 03:40:18;;;;;;;38.23;27.73;;;8.90;99.90;;;;;;5134179;27;20460;-72
2021/11/05 03:42:48;;;;;;;46.20;29.30;;;8.90;99.90;;;;;;5134506;27;20151;-72
2021/11/05 03:45:16;;;;;;;45.30;30.20;;;8.90;99.90;;;;;;5134069;27;20907;-72
2021/11/05 03:47:41;;;;;;;49.67;32.20;;;8.90;99.90;;;;;;5117732;27;20461;-72
2021/11/05 03:50:07;;;;;;;47.27;32.00;;;8.90;99.90;;;;;;5113807;28;20833;-71
2021/11/05 03:52:33;;;;;;;46.50;31.00;;;8.90;99.90;;;;;;5113506;28;20239;-72
2021/11/05 03:54:59;;;;;;;47.97;30.93;;;8.90;99.90;;;;;;5113176;28;20250;-72
2021/11/05 03:57:25;;;;;;;45.47;28.13;;;8.90;99.90;;;;;;5126714;27;20459;-72
2021/11/05 03:59:51;;;;;;;48.50;33.47;;;8.90;99.90;;;;;;5126401;27;21015;-72
2021/11/05 04:02:17;;;;;;;46.13;31.55;;;8.90;99.90;;;;;;5112990;28;20776;-72
2021/11/05 04:04:42;;;;;;;41.93;29.43;;;8.80;99.90;;;;;;5129289;27;20211;-71
2021/11/05 04:07:08;;;;;;;38.77;26.67;;;8.80;99.90;;;;;;5133775;27;20158;-72
2021/11/05 04:09:34;;;;;;;41.57;28.53;;;8.80;99.90;;;;;;5133409;27;20162;-72
2021/11/05 04:11:59;;;;;;;43.10;29.20;;;8.80;99.90;;;;;;5133804;27;20192;-72
2021/11/05 04:14:25;;;;;;;43.63;27.83;;;8.80;99.90;;;;;;5134052;27;20164;-71
2021/11/05 04:16:50;;;;;;;46.17;28.77;;;8.80;99.90;;;;;;5133380;27;20241;-72
2021/11/05 04:19:16;;;;;;;43.70;29.37;;;8.80;99.90;;;;;;5133528;27;20642;-72
2021/11/05 04:21:41;;;;;;;46.10;30.03;;;8.80;99.90;;;;;;5132350;27;20173;-72
2021/11/05 04:24:07;;;;;;;47.10;29.60;;;8.80;99.90;;;;;;5133612;27;20146;-71
2021/11/05 04:26:35;;;;;;;40.23;26.93;;;8.80;99.90;;;;;;5124372;27;20246;-72
2021/11/05 04:29:01;;;;;;;52.43;31.70;;;8.80;99.90;;;;;;5112309;28;20174;-72
2021/11/05 04:31:27;;;;;;;41.38;27.08;;;8.80;99.90;;;;;;5113492;28;20745;-72
2021/11/05 04:33:53;;;;;;;49.53;29.30;;;8.80;99.90;;;;;;5112686;28;20218;-72
2021/11/05 04:36:21;;;;;;;52.17;31.63;;;8.70;99.90;;;;;;5112866;28;20158;-72
2021/11/05 04:38:47;;;;;;;50.20;31.63;;;8.80;99.90;;;;;;5129349;28;20884;-71
2021/11/05 04:41:12;;;;;;;53.17;32.53;;;8.80;99.90;;;;;;5133258;28;20430;-72
2021/11/05 04:43:39;;;;;;;60.13;31.60;;;8.80;99.90;;;;;;5122301;28;20428;-72
2021/11/05 04:46:05;;;;;;;48.22;29.80;;;8.80;99.90;;;;;;5117998;28;20512;-72
2021/11/05 04:48:30;;;;;;;58.23;32.67;;;8.80;99.90;;;;;;5123018;28;20184;-71
2021/11/05 04:50:56;;;;;;;55.60;31.70;;;8.80;99.90;;;;;;5125626;28;20230;-71
2021/11/05 04:53:21;;;;;;;66.13;38.80;;;8.80;99.90;;;;;;5116958;28;20332;-72
2021/11/05 04:55:47;;;;;;;77.87;41.73;;;8.80;99.90;;;;;;5121842;28;20269;-71
2021/11/05 04:58:13;;;;;;;72.40;42.87;;;8.80;99.90;;;;;;5120000;28;20233;-72
2021/11/05 05:00:38;;;;;;;67.93;39.87;;;8.80;99.90;;;;;;5128836;28;20185;-72
2021/11/05 05:03:04;;;;;;;66.93;39.00;;;8.80;99.90;;;;;;5122538;28;20272;-72
2021/11/05 05:05:30;;;;;;;72.30;42.27;;;8.80;99.90;;;;;;5114687;28;20282;-72
2021/11/05 05:07:57;;;;;;;80.03;44.37;;;8.80;99.90;;;;;;5113638;28;20178;-72
2021/11/05 05:10:23;;;;;;;73.90;41.53;;;8.80;99.90;;;;;;5119510;28;20924;-72
2021/11/05 05:12:49;;;;;;;73.60;43.45;;;8.80;99.90;;;;;;5113170;28;20423;-72
2021/11/05 05:15:15;;;;;;;73.20;43.40;;;8.80;99.90;;;;;;5113745;28;20194;-72
2021/11/05 05:17:42;;;;;;;65.00;39.50;;;8.80;99.90;;;;;;5121443;28;20786;-72
2021/11/05 05:20:11;;;;;;;70.57;39.10;;;8.80;99.90;;;;;;5130290;28;20407;-72
2021/11/05 05:22:38;;;;;;;68.17;41.30;;;8.80;99.90;;;;;;5117345;28;20961;-72
2021/11/05 05:25:05;;;;;;;61.90;38.73;;;8.80;99.90;;;;;;5112431;28;20466;-72
2021/11/05 05:27:31;;;;;;;54.53;34.80;;;8.80;99.90;;;;;;5124067;28;20423;-72
2021/11/05 05:29:57;;;;;;;56.33;36.17;;;8.80;99.90;;;;;;5120374;28;20427;-72
2021/11/05 05:32:22;;;;;;;56.83;36.27;;;8.70;99.90;;;;;;5117471;28;20182;-72
2021/11/05 05:34:48;;;;;;;55.53;36.20;;;8.70;99.90;;;;;;5112188;28;20465;-72
2021/11/05 05:37:13;;;;;;;54.27;33.53;;;8.70;99.90;;;;;;5112183;28;20385;-72
2021/11/05 05:39:39;;;;;;;49.30;32.53;;;8.70;99.90;;;;;;5112474;28;20228;-72
2021/11/05 05:42:05;;;;;;;53.60;34.20;;;8.70;99.90;;;;;;5125699;28;20575;-72
2021/11/05 05:44:31;;;;;;;53.10;33.90;;;8.70;99.90;;;;;;5122344;27;20172;-71
2021/11/05 05:46:57;;;;;;;59.70;35.90;;;8.70;99.90;;;;;;5121047;27;20789;-71
2021/11/05 05:49:22;;;;;;;56.00;35.97;;;8.70;99.90;;;;;;5115588;28;20183;-71
2021/11/05 05:51:48;;;;;;;67.33;36.37;;;8.70;99.90;;;;;;5115737;28;20404;-72
2021/11/05 05:54:14;;;;;;;54.20;34.47;;;8.70;99.90;;;;;;5116016;28;20193;-73
2021/11/05 05:56:39;;;;;;;54.60;35.33;;;8.70;99.90;;;;;;5126382;27;20182;-73
2021/11/05 05:59:05;;;;;;;48.10;31.47;;;8.70;99.90;;;;;;5130878;27;20258;-72
2021/11/05 06:01:30;;;;;;;54.17;35.00;;;8.70;99.90;;;;;;5122577;27;20176;-72
2021/11/05 06:03:59;;;;;;;58.67;36.17;;;8.70;99.90;;;;;;5121258;27;20214;-72
2021/11/05 06:06:27;;;;;;;51.83;36.60;;;8.60;99.90;;;;;;5115423;28;20230;-72
2021/11/05 06:08:53;;;;;;;61.28;39.00;;;8.60;99.90;;;;;;5123270;27;20449;-72
2021/11/05 06:11:18;;;;;;;61.20;38.20;;;8.70;99.90;;;;;;5134578;27;20162;-72
2021/11/05 06:13:44;;;;;;;65.90;39.90;;;8.60;99.90;;;;;;5123857;27;20653;-72
2021/11/05 06:16:10;;;;;;;60.80;37.50;;;8.70;99.90;;;;;;5135249;27;20160;-72
2021/11/05 06:18:35;;;;;;;51.73;36.37;;;8.60;99.90;;;;;;5135799;27;20189;-72
2021/11/05 06:21:01;;;;;;;53.70;34.70;;;8.60;99.90;;;;;;5118088;27;20189;-72
2021/11/05 06:23:27;;;;;;;45.40;32.30;;;8.60;99.90;;;;;;5129185;27;20155;-72
2021/11/05 06:25:52;;;;;;;42.90;29.13;;;8.60;99.90;;;;;;5121916;27;20429;-72
2021/11/05 06:28:18;;;;;;;51.90;31.50;;;8.60;99.90;;;;;;5132412;27;20207;-72
2021/11/05 06:30:43;;;;;;;45.73;31.20;;;8.70;99.90;;;;;;5132349;27;20173;-69
2021/11/05 06:33:09;;;;;;;55.43;34.87;;;8.70;99.90;;;;;;5124271;27;20186;-71
2021/11/05 06:35:35;;;;;;;49.17;33.00;;;8.70;99.90;;;;;;5124130;27;20196;-73
2021/11/05 06:38:00;;;;;;;52.83;32.57;;;8.70;99.90;;;;;;5115129;27;20571;-72
2021/11/05 06:40:26;;;;;;;45.53;30.77;;;8.70;99.90;;;;;;5115004;27;20201;-73
2021/11/05 06:42:51;;;;;;;48.23;31.80;;;8.70;99.90;;;;;;5135092;27;20677;-73
2021/11/05 06:45:17;;;;;;;46.93;32.43;;;8.70;99.90;;;;;;5118790;27;20231;-73
2021/11/05 06:47:42;;;;;;;46.63;32.13;;;8.70;99.90;;;;;;5132090;27;20185;-73
2021/11/05 06:50:10;;;;;;;41.90;29.87;;;8.80;99.90;;;;;;5117864;27;20238;-73
2021/11/05 06:52:36;;;;;;;49.67;31.90;;;8.70;99.90;;;;;;5116221;27;20178;-73
2021/11/05 06:55:04;;;;;;;42.50;30.70;;;8.70;99.90;;;;;;5115924;27;20442;-73
2021/11/05 06:57:30;;;;;;;44.00;30.73;;;8.80;99.90;;;;;;5120623;27;20806;-73
2021/11/05 06:59:56;;;;;;;44.20;31.73;;;8.80;99.90;;;;;;5125558;27;20454;-73
2021/11/05 07:02:22;;;;;;;43.10;28.43;;;8.80;99.90;;;;;;5115501;27;20191;-73
2021/11/05 07:04:48;;;;;;;50.33;32.50;;;8.80;99.90;;;;;;5114332;28;20415;-73
2021/11/05 07:07:14;;;;;;;44.30;31.10;;;8.80;99.90;;;;;;5114377;28;20409;-73
2021/11/05 07:09:39;;;;;;;42.83;28.27;;;8.70;99.90;;;;;;5114352;27;20189;-73
2021/11/05 07:12:06;;;;;;;43.37;28.37;;;8.70;99.90;;;;;;5116753;27;20671;-73
2021/11/05 07:14:32;;;;;;;47.73;29.20;;;8.70;99.90;;;;;;5123157;27;20264;-73
2021/11/05 07:16:58;;;;;;;45.77;29.90;;;8.70;99.90;;;;;;5122927;27;20783;-73
2021/11/05 07:19:25;;;;;;;44.00;30.03;;;8.70;99.90;;;;;;5124197;27;20446;-74
2021/11/05 07:21:59;;;;;;;41.23;28.90;;;8.70;99.90;;;;;;5134449;27;20628;-73
2021/11/05 07:24:27;;;;;;;43.20;28.50;;;8.70;99.90;;;;;;5134459;27;20386;-72
2021/11/05 07:26:53;;;;;;;46.07;30.97;;;8.80;99.90;;;;;;5133526;27;20883;-73
2021/11/05 07:29:23;;;;;;;44.10;30.53;;;8.80;99.90;;;;;;5113929;27;20443;-73
2021/11/05 07:31:49;;;;;;;40.57;28.30;;;8.80;99.90;;;;;;5119350;27;20929;-73
2021/11/05 07:34:15;;;;;;;43.83;29.40;;;8.80;99.90;;;;;;5125059;27;20427;-73
2021/11/05 07:36:41;;;;;;;42.70;28.93;;;8.80;99.90;;;;;;5113336;28;20174;-73
2021/11/05 07:39:07;;;;;;;47.33;31.17;;;8.80;99.90;;;;;;5114495;27;20516;-73
2021/11/05 07:41:34;;;;;;;52.23;33.10;;;8.80;99.90;;;;;;5121635;27;20451;-73
2021/11/05 07:44:00;;;;;;;43.43;30.70;;;8.90;99.90;;;;;;5120850;27;20399;-73
2021/11/05 07:46:27;;;;;;;41.67;29.40;;;8.90;99.90;;;;;;5114867;27;20439;-73
2021/11/05 07:48:53;;;;;;;46.30;28.57;;;8.90;99.90;;;;;;5119344;27;20218;-72
2021/11/05 07:51:18;;;;;;;41.40;28.00;;;8.90;99.90;;;;;;5117780;27;20565;-73
2021/11/05 07:53:44;;;;;;;45.00;30.40;;;8.90;99.90;;;;;;5122506;27;20178;-73
2021/11/05 07:56:10;;;;;;;40.07;28.50;;;8.90;99.90;;;;;;5123430;27;20182;-73
2021/11/05 07:58:35;;;;;;;45.57;29.10;;;8.90;99.90;;;;;;5122505;27;20569;-73
2021/11/05 08:01:01;;;;;;;44.23;28.77;;;8.90;99.90;;;;;;5118429;27;20193;-73
2021/11/05 08:03:27;;;;;;;44.00;28.13;;;9.00;99.90;;;;;;5124658;27;20277;-73
2021/11/05 08:05:52;;;;;;;42.93;28.47;;;9.00;99.90;;;;;;5124400;27;20173;-73
2021/11/05 08:08:18;;;;;;;43.73;25.97;;;9.00;99.90;;;;;;5125859;27;20226;-73
2021/11/05 08:10:44;;;;;;;38.57;26.47;;;9.00;99.90;;;;;;5120975;27;20576;-73
2021/11/05 08:13:11;;;;;;;42.33;26.53;;;9.00;99.90;;;;;;5122651;27;20620;-73
2021/11/05 08:15:36;;;;;;;43.90;28.37;;;9.10;99.90;;;;;;5122758;27;20186;-73
2021/11/05 08:18:02;;;;;;;39.77;27.00;;;9.10;99.90;;;;;;5114425;28;20435;-73
2021/11/05 08:20:28;;;;;;;43.90;29.80;;;9.10;99.90;;;;;;5113873;27;20264;-73
2021/11/05 08:22:53;;;;;;;42.93;27.47;;;9.10;99.90;;;;;;5120814;27;20562;-73
2021/11/05 08:25:20;;;;;;;43.80;30.20;;;9.10;99.90;;;;;;5120570;27;20182;-73
2021/11/05 08:27:46;;;;;;;38.53;27.90;;;9.10;99.90;;;;;;5112305;28;20208;-73
2021/11/05 08:30:17;;;;;;;47.15;30.00;;;9.10;99.90;;;;;;5120416;27;20513;-73
2021/11/05 08:32:44;;;;;;;49.65;31.40;;;9.10;99.90;;;;;;5116369;27;20430;-73
2021/11/05 08:38:00;;;;;;;41.13;28.70;;;9.10;99.90;;;;;;5121900;27;20453;-73
2021/11/05 08:40:26;;;;;;;38.43;28.13;;;9.10;99.90;;;;;;5113636;27;20229;-74
2021/11/05 08:42:53;;;;;;;40.23;29.37;;;9.10;99.90;;;;;;5113208;28;20424;-73
2021/11/05 08:45:19;;;;;;;39.93;28.40;;;9.10;99.90;;;;;;5113181;28;20498;-74
2021/11/05 08:47:45;;;;;;;42.97;28.77;;;9.20;99.90;;;;;;5116516;28;20957;-73
2021/11/05 08:50:16;;;;;;;40.03;29.40;;;9.20;99.90;;;;;;5121295;28;20182;-73
2021/11/05 08:52:42;;;;;;;39.20;28.20;;;9.20;99.90;;;;;;5120998;28;20257;-73
2021/11/05 08:55:11;;;;;;;36.97;26.97;;;9.20;99.90;;;;;;5123163;28;20517;-73
2021/11/05 08:57:38;;;;;;;42.97;30.50;;;9.30;99.90;;;;;;5112385;28;20970;-73
2021/11/05 09:00:08;;;;;;;41.10;31.20;;;9.30;99.90;;;;;;5114062;28;20809;-73
2021/11/05 09:02:34;;;;;;;40.43;29.13;;;9.30;99.90;;;;;;5117660;28;20984;-73
2021/11/05 09:04:59;;;;;;;41.10;29.20;;;9.40;99.90;;;;;;5130955;28;20500;-73
2021/11/05 09:07:26;;;;;;;43.53;30.23;;;9.40;99.90;;;;;;5128315;28;20177;-74
2021/11/05 09:09:52;;;;;;;41.03;29.27;;;9.50;99.90;;;;;;5116765;28;20653;-73
2021/11/05 09:12:18;;;;;;;39.23;29.23;;;9.50;99.90;;;;;;5117740;28;20427;-73
2021/11/05 09:14:44;;;;;;;46.90;31.20;;;9.60;99.90;;;;;;5113436;28;20181;-73
2021/11/05 09:17:09;;;;;;;41.67;31.80;;;9.50;99.90;;;;;;5113508;28;20407;-72
2021/11/05 09:19:35;;;;;;;46.80;32.97;;;9.50;99.90;;;;;;5112954;28;20260;-72
2021/11/05 09:22:01;;;;;;;46.45;33.72;;;9.60;99.90;;;;;;5125212;27;20178;-72
2021/11/05 09:24:27;;;;;;;48.47;34.80;;;9.60;99.90;;;;;;5119359;27;20214;-71
2021/11/05 09:26:52;;;;;;;47.53;33.40;;;9.60;99.90;;;;;;5133112;27;20177;-72
2021/11/05 09:29:18;;;;;;;52.23;37.77;;;9.70;99.90;;;;;;5134332;27;20533;-73
2021/11/05 09:31:44;;;;;;;55.53;36.47;;;9.70;99.90;;;;;;5119980;27;20159;-73
2021/11/05 09:34:10;;;;;;;55.63;38.80;;;9.70;99.90;;;;;;5115351;28;20412;-73
2021/11/05 09:36:36;;;;;;;52.27;36.90;;;9.70;99.90;;;;;;5117612;27;20416;-73
2021/11/05 09:39:02;;;;;;;45.63;32.57;;;9.70;99.90;;;;;;5118090;27;20573;-75
2021/11/05 09:41:29;;;;;;;40.47;31.57;;;9.80;99.90;;;;;;5121696;27;20468;-72
2021/11/05 09:43:55;;;;;;;42.17;31.40;;;9.80;99.90;;;;;;5122485;27;20725;-75
2021/11/05 09:46:21;;;;;;;37.95;28.80;;;9.80;99.90;;;;;;5124137;27;20414;-71
2021/11/05 09:48:48;;;;;;;41.00;28.47;;;9.90;99.90;;;;;;5117731;27;20187;-73
2021/11/05 09:51:14;;;;;;;38.30;27.37;;;10.00;99.90;;;;;;5122772;27;20307;-72
2021/11/05 09:53:40;;;;;;;37.90;27.03;;;10.00;99.90;;;;;;5123824;27;21003;-74
2021/11/05 09:56:11;;;;;;;32.63;25.97;;;10.10;99.90;;;;;;5119420;27;20547;-73
2021/11/05 09:58:38;;;;;;;35.50;23.60;;;10.10;99.90;;;;;;5123423;27;20471;-73
2021/11/05 10:01:05;;;;;;;27.30;21.35;;;10.20;99.90;;;;;;5128583;27;20415;-73
2021/11/05 10:03:32;;;;;;;29.43;21.33;;;10.20;99.90;;;;;;5115346;28;20265;-73
2021/11/05 10:05:57;;;;;;;29.92;22.65;;;10.30;99.90;;;;;;5124053;27;20425;-73
2021/11/05 10:08:26;;;;;;;27.57;20.40;;;10.40;99.90;;;;;;5129308;27;20166;-72
2021/11/05 10:10:52;;;;;;;25.03;20.30;;;10.40;99.90;;;;;;5115291;28;20490;-73
2021/11/05 10:13:23;;;;;;;28.27;21.23;;;10.50;99.90;;;;;;5115036;28;20480;-72
2021/11/05 10:15:50;;;;;;;26.63;21.00;;;10.50;99.90;;;;;;5115027;28;20232;-72
2021/11/05 10:21:13;;;;;;;24.57;20.07;;;10.50;99.90;;;;;;5068717;28;20532;-71
2021/11/05 10:23:41;;;;;;;27.90;19.53;;;10.60;99.90;;;;;;5066300;28;20430;-71
2021/11/05 10:26:18;;;;;;;24.57;21.37;;;10.60;99.90;;;;;;5048723;28;20896;-72
2021/11/05 10:28:43;;;;;;;31.80;25.20;;;10.60;99.90;;;;;;5049004;28;20449;-71
2021/11/05 10:31:10;;;;;;;30.10;23.37;;;10.60;99.90;;;;;;5048130;28;20418;-72
2021/11/05 10:33:42;;;;;;;24.03;20.63;;;10.60;99.90;;;;;;5052968;28;20215;-71
2021/11/05 10:36:11;;;;;;;28.57;22.37;;;10.60;99.90;;;;;;5051534;28;21132;-71
2021/11/05 10:38:41;;;;;;;27.13;21.90;;;10.60;99.90;;;;;;5048519;28;20447;-71
2021/11/05 10:41:09;;;;;;;28.33;23.20;;;10.60;99.90;;;;;;5048086;28;20404;-72
2021/11/05 10:49:32;;;;;;;25.30;20.63;;;10.70;99.90;;;;;;5066799;28;20562;-72
2021/11/05 10:52:19;;;;;;;23.07;19.87;;;10.70;99.90;;;;;;5065149;28;20809;-73
2021/11/05 10:54:54;;;;;;;23.17;19.30;;;10.80;99.90;;;;;;5063822;28;20417;-72
2021/11/05 10:57:41;;;;;;;21.30;19.10;;;10.90;99.90;;;;;;5067136;28;20456;-72
2021/11/05 11:00:24;;;;;;;29.10;21.57;;;10.90;99.90;;;;;;5051470;28;20467;-71
2021/11/05 11:02:50;;;;;;;25.47;21.07;;;10.90;99.90;;;;;;5047203;28;20379;-71
2021/11/05 11:05:33;;;;;;;23.60;20.17;;;10.90;99.90;;;;;;5049006;28;20953;-72
2021/11/05 11:08:00;;;;;;;23.97;19.57;;;10.90;99.90;;;;;;5048680;28;20557;-71
2021/11/05 11:10:29;;;;;;;26.97;23.03;;;10.90;99.90;;;;;;5043154;28;20428;-73
2021/11/05 11:12:55;;;;;;;28.27;22.67;;;10.90;99.90;;;;;;5044216;28;20432;-71
2021/11/05 11:15:37;;;;;;;30.20;21.40;;;11.00;99.90;;;;;;5046155;28;20411;-71
2021/11/05 11:18:04;;;;;;;29.43;24.90;;;10.90;99.90;;;;;;5048807;28;20197;-72
2021/11/05 11:20:33;;;;;;;28.33;24.67;;;10.90;99.90;;;;;;5040629;28;20435;-71
2021/11/05 11:23:00;;;;;;;36.40;30.23;;;10.90;99.90;;;;;;5047536;28;20515;-72
2021/11/05 11:25:25;;;;;;;36.83;28.60;;;10.90;99.90;;;;;;5047806;28;20430;-71
2021/11/05 11:27:51;;;;;;;43.03;28.20;;;11.00;99.90;;;;;;5048219;28;20952;-71
2021/11/05 11:30:18;;;;;;;31.70;27.20;;;11.00;99.90;;;;;;5045829;28;20549;-71
2021/11/05 11:32:48;;;;;;;28.47;24.40;;;11.10;99.90;;;;;;5046601;28;20521;-71
2021/11/05 11:35:14;;;;;;;31.87;24.10;;;11.20;99.90;;;;;;5044982;28;20932;-73
2021/11/05 11:37:41;;;;;;;27.10;23.80;;;11.20;99.90;;;;;;5047373;28;20419;-72
2021/11/05 11:40:08;;;;;;;28.57;25.47;;;11.20;99.90;;;;;;5047086;28;20173;-72
2021/11/05 11:42:34;;;;;;;28.37;24.50;;;11.20;99.90;;;;;;5046854;28;20462;-72
2021/11/05 11:45:00;;;;;;;29.00;23.47;;;11.30;99.90;;;;;;5047238;28;20557;-72
2021/11/05 11:47:26;;;;;;;24.23;20.97;;;11.40;99.90;;;;;;5043133;28;20473;-72
2021/11/05 11:49:52;;;;;;;22.07;19.00;;;11.40;99.90;;;;;;5047504;28;20410;-72
2021/11/05 11:54:58;;;;;;;20.70;18.60;;;11.40;99.90;;;;;;5063232;28;20588;-72
2021/11/05 11:57:31;;;;;;;20.00;17.83;;;11.60;99.90;;;;;;5049257;28;20442;-72
2021/11/05 12:00:16;;;;;;;23.40;19.60;;;11.60;99.90;;;;;;5048788;28;20454;-72
2021/11/05 12:02:48;;;;;;;22.80;17.93;;;11.70;99.90;;;;;;5049346;28;20882;-72
2021/11/05 12:08:35;;;;;;;22.53;20.03;;;11.70;99.90;;;;;;5068657;28;20546;-72
2021/11/05 12:13:47;;;;;;;21.60;19.27;;;11.80;99.90;;;;;;5109890;27;20498;-71
2021/11/05 12:16:19;;;;;;;21.17;19.00;;;11.70;99.90;;;;;;5105963;28;20405;-71
2021/11/05 12:21:44;;;;;;;22.23;20.03;;;11.80;99.90;;;;;;5069510;28;20931;-71
2021/11/05 12:27:01;;;;;;;22.90;18.47;;;11.90;99.90;;;;;;5069497;27;20524;-75
2021/11/05 12:34:53;;;;;;;19.93;17.23;;;11.90;99.90;;;;;;5052236;28;20657;-74
2021/11/05 12:37:40;;;;;;;20.10;15.80;;;12.00;99.90;;;;;;5043389;28;20439;-74
2021/11/05 12:43:03;;;;;;;18.03;16.17;;;11.90;99.90;;;;;;5069108;28;20508;-71
2021/11/05 12:54:07;;;;;;;16.30;13.23;;;12.00;99.90;;;;;;5069369;28;20513;-72
2021/11/05 12:56:33;;;;;;;15.67;13.50;;;12.10;99.90;;;;;;5069599;28;20405;-71
2021/11/05 12:58:59;;;;;;;15.43;13.07;;;12.10;99.90;;;;;;5069376;28;20878;-72
2021/11/05 13:01:26;;;;;;;14.53;13.03;;;12.20;99.90;;;;;;5059760;28;20746;-72
2021/11/05 13:04:10;;;;;;;15.07;12.80;;;12.20;99.90;;;;;;5069222;28;20946;-72
2021/11/05 13:06:43;;;;;;;13.40;12.10;;;12.20;99.90;;;;;;5068034;28;20441;-72
2021/11/05 13:09:29;;;;;;;13.43;12.13;;;12.20;99.90;;;;;;5052032;28;20410;-72
2021/11/05 13:12:05;;;;;;;13.77;12.47;;;12.30;99.90;;;;;;5048732;28;20462;-71
2021/11/05 13:14:44;;;;;;;13.00;11.70;;;12.40;99.90;;;;;;5049191;28;20827;-71
2021/11/05 13:22:31;;;;;;;17.93;12.93;;;12.60;99.90;;;;;;5069338;28;20547;-72